Time;durP1;ratioP1;P1;durP2;ratioP2;P2;SDS_P1;SDS_P2;PMS_P1;PMS_P2;Temp;Humidity;BMP_temperature;BMP_pressure;BME280_temperature;BME280_humidity;BME280_pressure;Samples;Min_cycle;Max_cycle;Signal;HPM_P1;HPM_P2
2020/12/07 00:01:09;;;;;;;27.15;13.07;;;17.80;67.40;;;;;;5055871;28;20203;-88
2020/12/07 00:03:44;;;;;;;28.17;12.30;;;17.80;67.40;;;;;;5072605;28;20177;-89
2020/12/07 00:06:15;;;;;;;28.50;13.30;;;17.80;67.20;;;;;;5055837;28;20651;-88
2020/12/07 00:08:43;;;;;;;26.73;12.57;;;17.80;67.30;;;;;;5072744;28;20197;-88
2020/12/07 00:11:13;;;;;;;23.63;12.05;;;17.80;67.20;;;;;;5055814;28;20200;-88
2020/12/07 00:13:39;;;;;;;24.00;11.88;;;17.80;67.10;;;;;;5055486;28;20587;-89
2020/12/07 00:16:09;;;;;;;28.60;13.25;;;17.80;67.40;;;;;;5056230;28;20153;-89
2020/12/07 00:18:44;;;;;;;20.55;11.95;;;17.80;67.40;;;;;;5055647;28;20165;-88
2020/12/07 00:21:11;;;;;;;26.35;12.07;;;17.80;67.50;;;;;;5072726;28;20213;-89
2020/12/07 00:23:38;;;;;;;26.63;13.18;;;17.80;67.40;;;;;;5072351;28;20158;-88
2020/12/07 00:26:24;;;;;;;25.98;12.55;;;17.80;67.20;;;;;;5055380;28;20165;-88
2020/12/07 00:28:51;;;;;;;24.33;12.63;;;17.80;68.40;;;;;;5070449;28;20224;-89
2020/12/07 00:31:18;;;;;;;28.58;12.13;;;17.70;67.20;;;;;;5055683;28;20160;-88
2020/12/07 00:33:44;;;;;;;28.92;12.90;;;17.80;67.50;;;;;;5055441;28;20161;-88
2020/12/07 00:36:10;;;;;;;23.67;12.60;;;17.70;67.30;;;;;;5055476;28;20188;-88
2020/12/07 00:38:37;;;;;;;25.35;12.90;;;17.70;67.20;;;;;;5072688;28;20244;-89
2020/12/07 00:41:04;;;;;;;24.13;11.98;;;17.70;67.20;;;;;;5072573;28;20172;-89
2020/12/07 00:43:39;;;;;;;24.52;12.02;;;17.70;67.40;;;;;;5072184;28;20623;-88
2020/12/07 00:46:05;;;;;;;26.40;12.43;;;17.80;67.30;;;;;;5072077;28;20195;-88
2020/12/07 00:48:36;;;;;;;26.25;12.00;;;17.80;67.20;;;;;;5055344;28;20292;-89
2020/12/07 00:51:11;;;;;;;24.63;11.75;;;17.80;67.10;;;;;;5072019;28;20568;-88
2020/12/07 00:53:36;;;;;;;22.45;12.27;;;17.80;67.40;;;;;;5055257;28;20161;-89
2020/12/07 00:56:03;;;;;;;26.40;11.80;;;17.70;67.30;;;;;;5055648;28;20207;-88
2020/12/07 00:58:30;;;;;;;20.77;11.27;;;17.70;67.30;;;;;;5072261;28;20245;-89
2020/12/07 01:00:55;;;;;;;22.50;11.80;;;17.70;67.20;;;;;;5072337;28;20612;-89
2020/12/07 01:03:22;;;;;;;25.45;12.60;;;17.70;67.40;;;;;;5038576;28;20166;-87
2020/12/07 01:05:48;;;;;;;29.58;12.60;;;17.70;67.30;;;;;;5055183;28;20165;-89
2020/12/07 01:08:14;;;;;;;21.77;11.60;;;17.70;67.30;;;;;;5038709;28;20193;-89
2020/12/07 01:10:56;;;;;;;32.65;12.55;;;17.70;67.10;;;;;;5071956;28;20704;-88
2020/12/07 01:13:22;;;;;;;24.73;12.65;;;17.70;67.20;;;;;;5072079;28;20259;-87
2020/12/07 01:15:50;;;;;;;19.35;10.98;;;17.70;67.00;;;;;;5039204;28;20188;-87
2020/12/07 01:18:17;;;;;;;24.95;12.52;;;17.70;67.10;;;;;;5071879;28;20616;-87
2020/12/07 01:20:44;;;;;;;21.38;12.07;;;17.70;67.20;;;;;;5071764;28;20240;-88
2020/12/07 01:23:11;;;;;;;22.80;12.00;;;17.70;67.10;;;;;;5072083;28;20241;-87
2020/12/07 01:25:36;;;;;;;20.27;11.35;;;17.70;67.30;;;;;;5054897;28;20192;-87
2020/12/07 01:28:11;;;;;;;29.02;12.70;;;17.70;67.10;;;;;;5054957;28;20660;-88
2020/12/07 01:30:38;;;;;;;24.15;12.13;;;17.70;67.10;;;;;;5054842;28;20161;-88
2020/12/07 01:33:04;;;;;;;24.83;11.93;;;17.70;67.10;;;;;;5055072;28;20174;-87
2020/12/07 01:35:30;;;;;;;21.35;12.20;;;17.70;67.10;;;;;;5054808;28;20174;-88
2020/12/07 01:38:05;;;;;;;23.50;12.00;;;17.70;67.20;;;;;;5055238;28;20647;-88
2020/12/07 01:40:33;;;;;;;23.30;12.27;;;17.70;67.20;;;;;;5055402;28;20507;-89
2020/12/07 01:43:00;;;;;;;24.23;12.30;;;17.70;67.40;;;;;;5071614;28;20215;-88
2020/12/07 01:45:26;;;;;;;22.90;12.15;;;17.70;67.20;;;;;;5071436;28;20161;-89
2020/12/07 01:47:54;;;;;;;25.45;11.88;;;17.70;67.30;;;;;;5055558;28;20279;-88
2020/12/07 01:50:21;;;;;;;22.15;12.15;;;17.60;67.30;;;;;;5073514;28;20161;-87
2020/12/07 01:52:56;;;;;;;27.92;11.70;;;17.60;67.60;;;;;;5075105;28;20150;-88
2020/12/07 01:55:22;;;;;;;20.63;11.02;;;17.60;67.30;;;;;;5075418;28;20145;-87
2020/12/07 01:57:51;;;;;;;22.23;11.25;;;17.60;67.20;;;;;;5058340;28;20169;-88
2020/12/07 02:00:22;;;;;;;26.73;11.27;;;17.60;67.40;;;;;;5074944;28;20153;-88
2020/12/07 02:02:50;;;;;;;21.35;11.63;;;17.60;67.50;;;;;;5058499;28;20216;-88
2020/12/07 02:05:18;;;;;;;22.38;11.45;;;17.60;67.30;;;;;;5058344;28;20157;-88
2020/12/07 02:07:46;;;;;;;20.67;11.30;;;17.60;67.60;;;;;;5074876;28;20584;-87
2020/12/07 02:10:12;;;;;;;21.00;12.00;;;17.60;67.50;;;;;;5058601;28;20157;-88
2020/12/07 02:12:38;;;;;;;22.15;12.10;;;17.60;67.50;;;;;;5058449;28;20314;-88
2020/12/07 02:15:04;;;;;;;24.10;11.55;;;17.60;67.40;;;;;;5061257;28;20667;-88
2020/12/07 02:17:30;;;;;;;20.20;11.27;;;17.60;67.50;;;;;;5061549;28;20177;-88
2020/12/07 02:19:57;;;;;;;23.63;12.38;;;17.60;67.40;;;;;;5061407;28;20323;-88
2020/12/07 02:22:23;;;;;;;23.33;11.57;;;17.60;68.40;;;;;;5061744;28;20577;-88
2020/12/07 02:24:50;;;;;;;21.05;11.88;;;17.50;67.50;;;;;;5096007;28;20157;-88
2020/12/07 02:27:17;;;;;;;22.52;12.10;;;17.50;67.50;;;;;;5077886;28;20160;-88
2020/12/07 02:29:44;;;;;;;25.65;12.57;;;17.50;67.60;;;;;;5095821;28;20227;-88
2020/12/07 02:32:11;;;;;;;27.63;11.80;;;17.50;67.50;;;;;;5077964;28;20161;-88
2020/12/07 02:34:39;;;;;;;20.15;11.25;;;17.50;67.60;;;;;;5078188;28;20176;-88
2020/12/07 02:37:06;;;;;;;24.98;12.55;;;17.60;67.80;;;;;;5061526;28;20165;-88
2020/12/07 02:39:41;;;;;;;19.27;11.60;;;17.50;67.80;;;;;;5078096;28;20658;-88
2020/12/07 02:42:07;;;;;;;20.90;11.65;;;17.50;67.70;;;;;;5078011;28;20247;-87
2020/12/07 02:44:33;;;;;;;23.60;12.10;;;17.50;67.80;;;;;;5061136;28;20187;-89
2020/12/07 02:47:02;;;;;;;23.70;11.75;;;17.50;67.60;;;;;;5077623;28;20153;-88
2020/12/07 02:49:28;;;;;;;21.88;11.82;;;17.50;68.00;;;;;;5077856;28;20189;-87
2020/12/07 02:51:55;;;;;;;21.80;12.13;;;17.50;67.70;;;;;;5061042;28;20161;-88
2020/12/07 02:54:22;;;;;;;25.63;12.27;;;17.50;67.80;;;;;;5077762;28;20149;-89
2020/12/07 02:56:48;;;;;;;23.98;11.75;;;17.50;67.80;;;;;;5077733;28;20180;-88
2020/12/07 02:59:15;;;;;;;22.10;11.43;;;17.50;67.60;;;;;;5060484;28;20619;-87
2020/12/07 03:01:41;;;;;;;20.45;11.82;;;17.50;67.80;;;;;;5060542;28;20576;-88
2020/12/07 03:04:07;;;;;;;21.13;11.98;;;17.50;67.50;;;;;;5077174;28;20167;-89
2020/12/07 03:06:34;;;;;;;23.63;11.90;;;17.50;67.60;;;;;;5077293;28;20196;-88
2020/12/07 03:09:01;;;;;;;23.33;12.10;;;17.50;67.80;;;;;;5077440;28;20212;-87
2020/12/07 03:11:28;;;;;;;21.08;11.45;;;17.50;67.70;;;;;;5077568;28;20192;-88
2020/12/07 03:13:53;;;;;;;21.33;11.50;;;17.50;67.80;;;;;;5060329;28;20299;-88
2020/12/07 03:16:20;;;;;;;20.60;10.73;;;17.50;67.70;;;;;;5060468;28;20266;-88
2020/12/07 03:18:47;;;;;;;23.15;12.10;;;17.50;67.60;;;;;;5060175;28;20168;-88
2020/12/07 03:21:22;;;;;;;22.23;11.20;;;17.50;67.70;;;;;;5060076;28;20175;-87
2020/12/07 03:23:56;;;;;;;21.88;11.27;;;17.40;67.80;;;;;;5059886;28;20613;-87
2020/12/07 03:26:23;;;;;;;22.52;12.15;;;17.40;67.70;;;;;;5059953;28;20186;-87
2020/12/07 03:28:50;;;;;;;22.67;11.30;;;17.40;67.80;;;;;;5060288;28;20200;-88
2020/12/07 03:31:17;;;;;;;20.58;11.05;;;17.50;67.90;;;;;;5077038;28;20165;-88
2020/12/07 03:33:51;;;;;;;21.90;11.77;;;17.40;67.70;;;;;;5060501;28;20157;-88
2020/12/07 03:36:18;;;;;;;21.67;11.02;;;17.50;67.90;;;;;;5060226;28;20242;-87
2020/12/07 03:38:44;;;;;;;19.90;12.13;;;17.40;67.70;;;;;;5059830;28;20214;-87
2020/12/07 03:41:10;;;;;;;20.48;12.10;;;17.40;68.60;;;;;;5076535;28;20184;-89
2020/12/07 03:43:37;;;;;;;22.35;11.40;;;17.50;67.80;;;;;;5076487;28;20609;-88
2020/12/07 03:46:04;;;;;;;24.45;11.68;;;17.40;67.80;;;;;;5059621;28;20171;-88
2020/12/07 03:48:30;;;;;;;22.65;11.75;;;17.40;67.80;;;;;;5059532;28;20732;-89
2020/12/07 03:50:57;;;;;;;18.23;10.63;;;17.40;67.60;;;;;;5059586;28;20188;-88
2020/12/07 03:53:24;;;;;;;19.45;11.52;;;17.40;67.60;;;;;;5059866;28;20210;-88
2020/12/07 03:55:50;;;;;;;20.75;11.38;;;17.40;67.60;;;;;;5076377;28;20153;-89
2020/12/07 03:58:16;;;;;;;21.00;11.82;;;17.40;67.70;;;;;;5059435;28;20612;-87
2020/12/07 04:00:42;;;;;;;22.20;11.77;;;17.40;67.60;;;;;;5060174;28;20210;-88
2020/12/07 04:03:11;;;;;;;21.13;11.82;;;17.40;67.80;;;;;;5059543;28;20240;-88
2020/12/07 04:05:39;;;;;;;21.83;11.27;;;17.40;67.60;;;;;;5059675;28;20539;-88
2020/12/07 04:08:14;;;;;;;20.92;11.63;;;17.40;67.80;;;;;;5059276;28;20199;-87
2020/12/07 04:10:48;;;;;;;20.10;11.80;;;17.40;67.70;;;;;;5059586;28;20160;-87
2020/12/07 04:13:14;;;;;;;20.80;11.32;;;17.40;67.60;;;;;;5093443;28;20235;-89
2020/12/07 04:15:40;;;;;;;21.25;10.98;;;17.40;67.60;;;;;;5059471;28;20215;-88
2020/12/07 04:18:07;;;;;;;20.02;11.52;;;17.40;67.60;;;;;;5059199;28;20157;-88
2020/12/07 04:20:33;;;;;;;18.85;10.55;;;17.40;67.70;;;;;;5042857;28;20547;-87
2020/12/07 04:23:08;;;;;;;21.58;11.18;;;17.40;67.60;;;;;;5042537;28;20534;-88
2020/12/07 04:25:35;;;;;;;21.88;11.80;;;17.40;67.70;;;;;;5059327;28;20168;-88
2020/12/07 04:28:01;;;;;;;25.27;11.57;;;17.40;67.50;;;;;;5059318;28;20189;-88
2020/12/07 04:30:29;;;;;;;23.77;12.38;;;17.40;67.50;;;;;;5042379;28;20172;-88
2020/12/07 04:32:57;;;;;;;18.55;10.98;;;17.40;67.40;;;;;;5075604;28;20171;-88
2020/12/07 04:35:24;;;;;;;19.77;11.27;;;17.40;67.60;;;;;;5075958;28;20161;-88
2020/12/07 04:37:58;;;;;;;20.00;11.23;;;17.40;67.60;;;;;;5075678;28;20724;-88
2020/12/07 04:40:25;;;;;;;21.15;11.35;;;17.40;67.80;;;;;;5058673;28;20638;-88
2020/12/07 04:42:52;;;;;;;22.98;11.40;;;17.40;67.70;;;;;;5058814;28;20258;-88
2020/12/07 04:45:19;;;;;;;20.58;11.73;;;17.40;67.50;;;;;;5075370;28;20164;-87
2020/12/07 04:47:49;;;;;;;23.00;11.73;;;17.40;67.40;;;;;;5058786;28;20271;-87
2020/12/07 04:50:14;;;;;;;19.58;10.80;;;17.50;66.60;;;;;;5059630;28;20176;-87
2020/12/07 04:52:41;;;;;;;20.92;11.38;;;17.50;66.60;;;;;;5042665;28;20611;-88
2020/12/07 04:55:07;;;;;;;19.58;10.90;;;17.50;66.10;;;;;;5075661;28;20607;-89
2020/12/07 04:57:33;;;;;;;22.00;11.00;;;17.60;65.50;;;;;;5059305;28;20165;-88
2020/12/07 04:59:59;;;;;;;19.77;11.05;;;17.60;64.50;;;;;;5042183;28;20218;-88
2020/12/07 05:02:29;;;;;;;18.17;10.93;;;17.80;64.10;;;;;;5059501;28;20198;-87
2020/12/07 05:04:55;;;;;;;21.75;11.38;;;17.80;63.80;;;;;;5075804;28;20157;-88
2020/12/07 05:07:21;;;;;;;17.90;10.85;;;17.80;63.50;;;;;;5059309;28;20179;-88
2020/12/07 05:09:48;;;;;;;18.67;11.52;;;17.80;63.80;;;;;;5059359;28;20196;-88
2020/12/07 05:12:18;;;;;;;19.38;10.90;;;17.80;63.90;;;;;;5058632;28;20161;-88
2020/12/07 05:14:45;;;;;;;21.15;10.95;;;17.80;64.10;;;;;;5059027;28;20683;-88
2020/12/07 05:17:15;;;;;;;20.63;10.93;;;17.70;63.10;;;;;;5042054;28;20571;-88
2020/12/07 05:19:45;;;;;;;19.80;11.25;;;17.70;63.90;;;;;;5042339;28;20160;-88
2020/12/07 05:22:15;;;;;;;19.60;10.40;;;17.80;63.00;;;;;;5058927;28;20620;-87
2020/12/07 05:24:43;;;;;;;21.75;11.35;;;17.80;63.50;;;;;;5059893;28;20611;-88
2020/12/07 05:27:11;;;;;;;16.75;10.68;;;17.80;63.40;;;;;;5045933;28;20176;-88
2020/12/07 05:30:01;;;;;;;20.52;10.65;;;17.80;62.70;;;;;;5046366;28;20192;-88
2020/12/07 05:32:37;;;;;;;20.10;10.80;;;17.80;63.60;;;;;;5051257;28;20161;-89
2020/12/07 05:35:03;;;;;;;21.52;12.07;;;17.80;62.80;;;;;;5062837;28;20157;-87
2020/12/07 05:37:34;;;;;;;23.73;12.10;;;17.80;62.80;;;;;;5045838;28;20161;-88
2020/12/07 05:40:01;;;;;;;18.02;11.27;;;17.80;63.20;;;;;;5045562;28;20634;-88
2020/12/07 05:42:30;;;;;;;19.35;11.07;;;17.80;63.10;;;;;;5046170;28;20204;-88
2020/12/07 05:44:58;;;;;;;17.92;11.23;;;17.80;62.00;;;;;;5061857;28;20167;-88
2020/12/07 05:47:25;;;;;;;18.65;10.75;;;17.80;62.50;;;;;;5045439;28;20302;-88
2020/12/07 05:49:52;;;;;;;19.77;11.52;;;17.80;62.40;;;;;;5045276;28;20192;-88
2020/12/07 05:52:38;;;;;;;19.52;11.10;;;17.80;62.10;;;;;;5045878;28;20238;-89
2020/12/07 05:55:04;;;;;;;17.75;11.00;;;17.80;62.00;;;;;;5063068;28;20538;-88
2020/12/07 05:57:47;;;;;;;19.10;11.65;;;17.80;61.60;;;;;;5061896;28;20149;-87
2020/12/07 06:00:24;;;;;;;20.50;11.20;;;17.80;63.20;;;;;;5078843;28;20157;-88
2020/12/07 06:02:55;;;;;;;17.58;10.40;;;17.80;62.50;;;;;;5061509;28;20164;-87
2020/12/07 06:05:23;;;;;;;18.15;10.85;;;17.80;61.50;;;;;;5062078;28;20172;-88
2020/12/07 06:07:54;;;;;;;18.70;11.00;;;17.80;61.50;;;;;;5078310;28;20160;-88
2020/12/07 06:10:22;;;;;;;17.00;10.90;;;17.80;62.10;;;;;;5096318;28;20231;-88
2020/12/07 06:12:51;;;;;;;19.33;11.50;;;17.80;62.10;;;;;;5061465;28;20153;-88
2020/12/07 06:15:19;;;;;;;15.32;10.02;;;17.70;62.10;;;;;;5061171;28;20220;-88
2020/12/07 06:17:51;;;;;;;18.10;10.63;;;17.70;61.80;;;;;;5044968;28;20181;-88
2020/12/07 06:20:32;;;;;;;17.80;10.60;;;17.80;61.60;;;;;;5047048;28;20263;-88
2020/12/07 06:23:00;;;;;;;18.55;10.80;;;17.80;61.30;;;;;;5066365;28;20172;-89
2020/12/07 06:25:34;;;;;;;16.92;10.85;;;17.80;61.50;;;;;;5063710;28;20149;-88
2020/12/07 06:28:01;;;;;;;18.42;10.25;;;17.80;61.50;;;;;;5064419;28;20543;-87
2020/12/07 06:30:37;;;;;;;18.05;10.50;;;17.90;61.10;;;;;;5047694;28;20160;-87
2020/12/07 06:33:08;;;;;;;16.60;10.73;;;17.90;61.30;;;;;;5047531;28;20164;-89
2020/12/07 06:35:44;;;;;;;19.45;10.77;;;17.90;61.00;;;;;;5064489;28;20202;-88
2020/12/07 06:38:11;;;;;;;18.35;10.77;;;17.90;61.20;;;;;;5048244;28;20170;-87
2020/12/07 06:40:39;;;;;;;16.92;10.50;;;17.80;61.40;;;;;;5081160;28;20165;-88
2020/12/07 06:43:28;;;;;;;16.10;9.95;;;17.90;60.30;;;;;;5065312;28;20201;-88
2020/12/07 06:45:54;;;;;;;15.93;10.68;;;17.90;60.30;;;;;;5080163;28;20169;-89
2020/12/07 06:48:23;;;;;;;17.08;10.30;;;17.90;60.20;;;;;;5045280;28;20623;-89
2020/12/07 06:50:52;;;;;;;16.67;10.63;;;17.90;59.60;;;;;;5045304;28;20161;-88
2020/12/07 06:53:38;;;;;;;16.35;10.02;;;17.90;60.90;;;;;;5046343;28;20193;-89
2020/12/07 06:56:09;;;;;;;15.52;10.50;;;17.90;60.50;;;;;;5049026;28;20160;-89
2020/12/07 06:58:46;;;;;;;15.93;9.95;;;17.90;60.10;;;;;;5061746;28;20171;-89
2020/12/07 07:01:22;;;;;;;17.55;10.38;;;17.90;59.90;;;;;;5062336;28;20167;-89
2020/12/07 07:03:55;;;;;;;15.50;10.07;;;17.90;60.10;;;;;;5061396;28;20187;-88
2020/12/07 07:06:25;;;;;;;15.38;9.95;;;17.80;60.40;;;;;;5061717;28;20169;-88
2020/12/07 07:08:59;;;;;;;14.55;10.13;;;17.80;59.50;;;;;;5045851;28;20192;-88
2020/12/07 07:11:27;;;;;;;15.27;10.52;;;17.90;60.30;;;;;;5079711;28;20155;-88
2020/12/07 07:13:53;;;;;;;18.15;10.35;;;17.90;59.80;;;;;;5042565;28;20235;-89
2020/12/07 07:16:33;;;;;;;16.52;9.70;;;17.90;59.80;;;;;;5061338;28;20628;-88
2020/12/07 07:19:06;;;;;;;19.58;11.10;;;17.90;59.60;;;;;;5078038;28;20169;-88
2020/12/07 07:21:41;;;;;;;16.75;10.23;;;17.80;60.30;;;;;;5062696;28;20165;-87
2020/12/07 07:24:22;;;;;;;17.77;10.30;;;17.80;60.80;;;;;;5076183;28;20172;-89
2020/12/07 07:27:54;;;;;;;15.88;9.82;;;17.90;59.60;;;;;;5061315;28;20161;-88
2020/12/07 07:32:50;;;;;;;;;;;;;;;;;;;;;
2020/12/07 07:35:19;;;;;;;18.48;9.80;;;17.80;59.50;;;;;;5067655;28;20191;-88
2020/12/07 07:37:49;;;;;;;16.77;9.93;;;17.80;59.60;;;;;;5074740;28;20157;-88
2020/12/07 07:40:23;;;;;;;15.07;9.13;;;17.90;58.90;;;;;;5057852;28;20172;-88
2020/12/07 07:43:16;;;;;;;14.77;9.45;;;17.90;59.80;;;;;;5058180;28;20248;-89
2020/12/07 07:45:58;;;;;;;14.82;9.93;;;17.90;59.90;;;;;;5076834;28;20162;-91
2020/12/07 07:48:51;;;;;;;17.83;10.50;;;17.80;60.30;;;;;;5062125;28;20208;-88
2020/12/07 07:52:22;;;;;;;14.82;9.88;;;17.80;60.10;;;;;;5060959;28;20168;-88
2020/12/07 08:01:49;;;;;;;15.75;9.65;;;17.90;59.70;;;;;;4983111;28;20287;-89
2020/12/07 08:17:54;;;;;;;17.48;9.77;;;17.90;59.60;;;;;;4996657;28;20187;-89
2020/12/07 08:20:24;;;;;;;17.80;9.68;;;17.80;60.30;;;;;;4965674;28;20183;-89
2020/12/07 08:23:02;;;;;;;15.77;9.15;;;17.80;60.00;;;;;;4963960;28;20160;-87
2020/12/07 08:25:52;;;;;;;14.10;9.55;;;17.90;59.20;;;;;;4963949;28;20180;-89
2020/12/07 08:28:30;;;;;;;14.18;9.30;;;17.90;59.30;;;;;;4977822;28;20215;-88
2020/12/07 08:31:17;;;;;;;14.55;9.48;;;17.90;58.60;;;;;;4977489;28;20180;-88
2020/12/07 08:34:01;;;;;;;14.73;9.60;;;17.90;58.70;;;;;;5005158;28;20181;-87
2020/12/07 08:36:47;;;;;;;14.38;9.68;;;18.00;58.60;;;;;;5057156;28;20161;-86
2020/12/07 08:39:27;;;;;;;14.48;8.88;;;17.90;58.70;;;;;;5058862;28;20165;-91
2020/12/07 08:42:07;;;;;;;13.73;8.82;;;17.90;58.80;;;;;;5043210;28;20760;-90
2020/12/07 08:44:37;;;;;;;13.13;8.65;;;17.80;58.40;;;;;;5060791;28;20161;-88
2020/12/07 08:47:08;;;;;;;12.90;8.45;;;17.90;57.80;;;;;;5043218;28;20173;-88
2020/12/07 08:49:35;;;;;;;14.93;9.30;;;18.00;58.50;;;;;;5043516;28;20679;-88
2020/12/07 08:52:10;;;;;;;16.38;9.15;;;18.00;58.30;;;;;;5043656;28;20158;-88
2020/12/07 08:54:38;;;;;;;19.27;10.20;;;17.90;58.60;;;;;;5043680;28;20157;-90
2020/12/07 08:57:08;;;;;;;14.52;9.27;;;17.90;58.70;;;;;;5076535;28;20158;-88
2020/12/07 08:59:37;;;;;;;11.15;8.30;;;17.90;58.80;;;;;;5043473;28;20222;-89
2020/12/07 09:02:08;;;;;;;14.75;8.95;;;17.90;58.20;;;;;;5063367;28;20157;-88
2020/12/07 09:04:43;;;;;;;14.65;9.23;;;17.90;58.30;;;;;;5047912;28;20172;-88
2020/12/07 09:07:10;;;;;;;15.13;8.52;;;17.90;58.10;;;;;;5050309;28;20164;-88
2020/12/07 09:09:37;;;;;;;13.02;9.00;;;18.00;58.00;;;;;;5064642;28;20238;-87
2020/12/07 09:12:06;;;;;;;14.70;9.00;;;18.10;57.90;;;;;;5048351;28;20248;-89
2020/12/07 09:14:49;;;;;;;;;;;;;;;;;;;;;
2020/12/07 09:17:15;;;;;;;15.07;8.70;;;18.00;58.30;;;;;;5087070;28;20252;-85
2020/12/07 09:19:45;;;;;;;13.57;8.25;;;18.00;58.10;;;;;;5067496;28;20213;-88
2020/12/07 09:22:12;;;;;;;14.20;8.63;;;17.90;58.50;;;;;;5047670;28;20694;-88
2020/12/07 09:24:38;;;;;;;14.20;8.63;;;17.90;58.10;;;;;;5064220;28;20247;-88
2020/12/07 09:27:06;;;;;;;15.85;9.05;;;18.00;57.80;;;;;;5099833;28;20589;-89
2020/12/07 09:29:33;;;;;;;15.20;9.02;;;18.00;57.80;;;;;;5064962;28;20220;-87
2020/12/07 09:32:00;;;;;;;15.68;8.80;;;18.00;58.00;;;;;;5063403;28;20186;-89
2020/12/07 09:34:30;;;;;;;13.88;8.90;;;18.00;57.70;;;;;;5084869;28;20217;-86
2020/12/07 09:37:00;;;;;;;13.65;8.13;;;18.10;57.70;;;;;;5086753;28;20180;-88
2020/12/07 09:39:35;;;;;;;13.38;8.13;;;18.10;57.30;;;;;;5098522;28;20611;-89
2020/12/07 09:42:09;;;;;;;13.23;8.10;;;18.10;57.10;;;;;;5081740;28;20164;-90
2020/12/07 09:44:36;;;;;;;11.35;8.02;;;18.10;57.00;;;;;;5065338;28;20163;-89
2020/12/07 09:47:02;;;;;;;14.70;8.88;;;18.20;56.90;;;;;;5065164;28;20256;-90
2020/12/07 09:49:29;;;;;;;12.52;8.90;;;18.10;57.10;;;;;;5080929;28;20181;-89
2020/12/07 09:52:04;;;;;;;13.13;8.45;;;18.10;56.90;;;;;;5080556;28;20213;-89
2020/12/07 09:54:36;;;;;;;12.13;8.38;;;18.10;57.10;;;;;;5063974;28;20595;-89
2020/12/07 09:57:03;;;;;;;13.70;8.60;;;18.10;57.30;;;;;;5082087;28;20169;-88
2020/12/07 09:59:39;;;;;;;12.02;7.55;;;18.10;57.30;;;;;;5083763;28;20160;-88
2020/12/07 10:02:06;;;;;;;13.48;8.45;;;18.10;56.70;;;;;;5079901;28;20629;-87
2020/12/07 10:04:33;;;;;;;10.38;7.40;;;18.00;57.50;;;;;;5063823;28;20168;-89
2020/12/07 10:07:00;;;;;;;12.50;7.85;;;18.10;57.10;;;;;;5067443;28;20160;-89
2020/12/07 10:09:34;;;;;;;13.10;8.57;;;18.10;56.60;;;;;;5065513;28;20237;-89
2020/12/07 10:12:01;;;;;;;11.68;7.97;;;18.10;57.00;;;;;;5066106;28;20159;-90
2020/12/07 10:14:36;;;;;;;11.75;8.15;;;18.10;57.00;;;;;;5062215;28;20710;-88
2020/12/07 10:17:03;;;;;;;13.60;7.90;;;18.00;57.20;;;;;;5078882;28;20642;-89
2020/12/07 10:19:38;;;;;;;10.65;7.65;;;18.00;57.30;;;;;;5078906;28;20161;-89
2020/12/07 10:22:05;;;;;;;12.50;8.00;;;18.00;57.10;;;;;;5080226;28;20279;-89
2020/12/07 10:24:52;;;;;;;14.07;7.72;;;18.00;57.40;;;;;;5081908;28;20222;-88
2020/12/07 10:27:17;;;;;;;11.63;7.88;;;18.00;56.90;;;;;;5073041;28;20161;-89
2020/12/07 10:29:43;;;;;;;12.73;8.40;;;18.00;57.10;;;;;;5075351;28;20223;-88
2020/12/07 10:32:10;;;;;;;14.48;8.55;;;18.00;56.90;;;;;;5042050;28;20169;-88
2020/12/07 10:34:47;;;;;;;12.82;8.18;;;18.10;56.70;;;;;;5041506;28;20512;-89
2020/12/07 10:37:15;;;;;;;13.75;7.80;;;18.10;57.20;;;;;;5059349;28;20161;-89
2020/12/07 10:39:42;;;;;;;14.95;8.45;;;18.10;56.90;;;;;;5074644;28;20157;-88
2020/12/07 10:42:09;;;;;;;12.18;8.15;;;18.10;56.90;;;;;;5057862;28;20198;-89
2020/12/07 10:44:36;;;;;;;12.35;8.00;;;18.10;57.10;;;;;;5074894;28;20176;-88
2020/12/07 10:47:04;;;;;;;11.20;7.53;;;18.10;56.80;;;;;;5057317;28;20248;-88
2020/12/07 10:49:31;;;;;;;10.80;7.35;;;18.10;56.90;;;;;;5076776;28;20220;-88
2020/12/07 10:51:59;;;;;;;13.73;8.10;;;18.00;56.90;;;;;;5059262;28;20619;-88
2020/12/07 10:54:26;;;;;;;10.85;7.18;;;18.00;56.90;;;;;;5074868;28;20165;-88
2020/12/07 10:56:53;;;;;;;10.55;7.70;;;18.00;56.50;;;;;;5057956;28;20154;-88
2020/12/07 10:59:19;;;;;;;10.55;7.57;;;18.00;57.60;;;;;;5075733;28;20522;-89
2020/12/07 11:01:46;;;;;;;12.75;7.68;;;18.00;56.70;;;;;;5074612;28;20161;-89
2020/12/07 11:04:13;;;;;;;10.82;6.88;;;18.00;56.80;;;;;;5058864;28;20299;-89
2020/12/07 11:06:45;;;;;;;11.43;7.45;;;18.00;56.70;;;;;;5075512;28;20158;-89
2020/12/07 11:09:12;;;;;;;14.05;8.30;;;17.90;57.00;;;;;;5074406;28;20193;-89
2020/12/07 11:11:43;;;;;;;14.48;8.10;;;18.00;57.10;;;;;;5058548;28;20171;-88
2020/12/07 11:14:08;;;;;;;11.07;7.53;;;17.90;57.30;;;;;;5074077;28;20764;-88
2020/12/07 11:16:35;;;;;;;13.40;7.60;;;17.90;56.90;;;;;;5074417;28;20193;-89
2020/12/07 11:19:02;;;;;;;12.05;7.65;;;18.00;56.40;;;;;;5057498;28;20639;-89
2020/12/07 11:21:28;;;;;;;11.57;7.82;;;18.00;56.20;;;;;;5076694;28;20550;-89
2020/12/07 11:23:55;;;;;;;11.57;7.50;;;18.00;56.20;;;;;;5075563;28;20189;-89
2020/12/07 11:26:21;;;;;;;11.45;8.10;;;18.10;56.30;;;;;;5075397;28;20182;-88
2020/12/07 11:28:47;;;;;;;10.88;7.85;;;18.00;56.20;;;;;;5042604;28;20530;-89
2020/12/07 11:31:15;;;;;;;9.70;7.00;;;18.10;55.80;;;;;;5074879;28;20185;-89
2020/12/07 11:33:42;;;;;;;11.18;7.38;;;18.10;55.70;;;;;;5056635;28;20215;-88
2020/12/07 11:36:09;;;;;;;10.45;7.30;;;18.10;55.70;;;;;;5074033;28;20226;-88
2020/12/07 11:39:12;;;;;;;9.77;7.28;;;18.10;55.90;;;;;;5056489;28;20161;-88
2020/12/07 11:41:58;;;;;;;11.73;7.13;;;18.00;55.80;;;;;;5072099;28;20660;-88
2020/12/07 11:44:30;;;;;;;11.88;6.80;;;18.00;56.10;;;;;;5069589;28;20161;-89
2020/12/07 11:47:02;;;;;;;11.45;7.95;;;18.00;56.00;;;;;;5075213;28;20248;-88
2020/12/07 11:49:30;;;;;;;13.13;7.40;;;18.00;56.00;;;;;;5073926;28;20563;-88
2020/12/07 11:52:02;;;;;;;10.35;7.20;;;18.00;55.90;;;;;;5073910;28;20153;-89
2020/12/07 11:54:36;;;;;;;10.90;7.15;;;18.00;56.10;;;;;;5075450;28;20149;-88
2020/12/07 11:57:08;;;;;;;9.57;7.30;;;18.00;55.70;;;;;;5074346;28;20620;-89
2020/12/07 11:59:35;;;;;;;10.68;7.75;;;18.00;55.20;;;;;;5073133;28;20158;-88
2020/12/07 12:02:01;;;;;;;12.07;7.22;;;18.00;55.50;;;;;;5056297;28;20189;-88
2020/12/07 12:04:28;;;;;;;12.30;7.97;;;18.00;55.20;;;;;;5072883;28;20184;-87
2020/12/07 12:06:55;;;;;;;18.55;7.13;;;18.10;55.30;;;;;;5072769;28;20533;-89
2020/12/07 12:09:21;;;;;;;9.60;6.90;;;18.10;55.20;;;;;;5055957;28;20262;-88
2020/12/07 12:11:48;;;;;;;10.57;7.25;;;18.10;55.00;;;;;;5056067;28;20548;-89
2020/12/07 12:14:14;;;;;;;10.20;7.13;;;18.00;55.00;;;;;;5072805;28;20687;-88
2020/12/07 12:16:41;;;;;;;10.68;6.45;;;18.00;55.00;;;;;;5056150;28;20165;-88
2020/12/07 12:19:27;;;;;;;10.50;7.50;;;18.10;54.60;;;;;;5074640;28;20177;-88
2020/12/07 12:21:55;;;;;;;10.70;6.95;;;18.10;54.10;;;;;;5069714;28;20244;-88
2020/12/07 12:24:21;;;;;;;9.38;7.03;;;18.20;54.50;;;;;;5056097;28;20248;-88
2020/12/07 12:26:48;;;;;;;9.77;6.78;;;18.20;54.50;;;;;;5072868;28;20206;-88
2020/12/07 12:29:15;;;;;;;11.60;6.82;;;18.10;54.30;;;;;;5055755;28;20682;-88
2020/12/07 12:31:43;;;;;;;9.13;6.43;;;18.10;54.40;;;;;;5072823;28;20177;-88
2020/12/07 12:34:10;;;;;;;9.85;6.60;;;18.10;54.50;;;;;;5056423;28;20161;-88
2020/12/07 12:36:37;;;;;;;10.30;7.05;;;18.10;54.60;;;;;;5056385;28;20161;-89
2020/12/07 12:39:04;;;;;;;10.60;6.93;;;18.10;54.40;;;;;;5072803;28;20161;-89
2020/12/07 12:41:32;;;;;;;9.57;6.50;;;18.00;54.10;;;;;;5073713;28;20161;-88
2020/12/07 12:43:59;;;;;;;9.85;6.75;;;18.10;54.00;;;;;;5072539;28;20225;-88
2020/12/07 12:46:25;;;;;;;9.25;6.32;;;18.10;54.50;;;;;;5074676;28;20657;-88
2020/12/07 12:48:52;;;;;;;10.75;7.10;;;18.10;54.30;;;;;;5073730;28;20185;-88
2020/12/07 12:51:18;;;;;;;10.27;6.50;;;18.10;54.10;;;;;;5073552;28;20240;-89
2020/12/07 12:53:47;;;;;;;9.48;6.82;;;18.10;54.20;;;;;;5074514;28;20157;-89
2020/12/07 12:56:21;;;;;;;8.48;6.53;;;18.10;54.10;;;;;;5075702;28;20623;-88
2020/12/07 12:58:48;;;;;;;10.50;6.85;;;18.20;54.20;;;;;;5074507;28;20169;-87
2020/12/07 13:01:15;;;;;;;8.73;6.75;;;18.10;53.80;;;;;;5075980;28;20161;-87
2020/12/07 13:03:42;;;;;;;9.77;6.82;;;18.10;54.20;;;;;;5060085;28;20659;-88
2020/12/07 13:06:10;;;;;;;9.35;6.30;;;18.10;54.20;;;;;;5075550;28;20161;-89
2020/12/07 13:08:47;;;;;;;9.77;6.45;;;18.10;53.80;;;;;;5056176;28;20286;-88
2020/12/07 13:11:27;;;;;;;10.52;6.35;;;18.20;53.90;;;;;;5076426;28;20283;-89